createdAt,value
2019-04-03T00:00:00.081Z,26.60
2019-04-03T00:02:30.184Z,23.40
2019-04-03T00:05:00.589Z,27.37
2019-04-03T00:07:30.673Z,26.43
2019-04-03T00:10:00.867Z,27.53
2019-04-03T00:12:30.966Z,26.00
2019-04-03T00:15:01.129Z,31.47
2019-04-03T00:17:31.248Z,24.73
2019-04-03T00:20:01.364Z,26.33
2019-04-03T00:22:31.435Z,29.30
2019-04-03T00:25:01.568Z,29.57
2019-04-03T00:27:31.712Z,30.30
2019-04-03T00:30:01.805Z,29.80
2019-04-03T00:32:31.839Z,32.37
2019-04-03T00:35:01.976Z,31.57
2019-04-03T00:37:32.107Z,34.03
2019-04-03T00:40:02.181Z,32.37
2019-04-03T00:42:32.315Z,28.07
2019-04-03T00:45:02.386Z,26.30
2019-04-03T00:47:32.447Z,36.83
2019-04-03T00:50:02.534Z,28.10
2019-04-03T00:52:32.637Z,27.00
2019-04-03T00:55:02.751Z,33.40
2019-04-03T00:57:32.858Z,29.57
2019-04-03T01:00:02.937Z,37.17
2019-04-03T01:02:33.164Z,30.03
2019-04-03T01:05:03.831Z,33.50
2019-04-03T01:07:34.170Z,31.20
2019-04-03T01:10:04.471Z,31.87
2019-04-03T01:12:34.680Z,29.63
2019-04-03T01:15:05.158Z,27.73
2019-04-03T01:17:35.314Z,29.70
2019-04-03T01:20:07.037Z,30.57
2019-04-03T01:22:37.797Z,30.67
2019-04-03T01:25:09.310Z,34.40
2019-04-03T01:27:41.533Z,36.03
2019-04-03T01:30:14.030Z,34.20
2019-04-03T01:32:46.080Z,35.60
2019-04-03T01:35:17.451Z,35.67
2019-04-03T01:37:49.922Z,32.50
2019-04-03T01:40:20.857Z,27.67
2019-04-03T01:42:52.878Z,30.67
2019-04-03T01:45:25.273Z,34.67
2019-04-03T01:47:57.602Z,33.67
2019-04-03T01:50:28.555Z,33.10
2019-04-03T01:53:01.786Z,53.03
2019-04-03T01:55:31.123Z,29.70
2019-04-03T01:58:01.211Z,31.07
2019-04-03T02:00:31.439Z,31.23
2019-04-03T02:03:02.386Z,34.17
2019-04-03T02:05:32.609Z,32.53
2019-04-03T02:08:02.778Z,29.80
2019-04-03T02:10:32.903Z,28.50
2019-04-03T02:13:03.060Z,37.57
2019-04-03T02:15:33.345Z,31.00
2019-04-03T02:18:03.432Z,29.40
2019-04-03T02:20:33.508Z,33.87
2019-04-03T02:23:03.670Z,30.07
2019-04-03T02:25:33.745Z,34.67
2019-04-03T02:28:04.556Z,29.20
2019-04-03T02:30:34.853Z,34.97
2019-04-03T02:33:04.962Z,32.53
2019-04-03T02:35:38.917Z,33.13
2019-04-03T02:38:06.923Z,37.63
2019-04-03T02:40:37.685Z,26.70
2019-04-03T02:43:07.874Z,35.03
2019-04-03T02:45:38.479Z,37.73
2019-04-03T02:48:08.699Z,31.67
2019-04-03T02:50:38.995Z,27.97
2019-04-03T02:53:09.800Z,32.33
2019-04-03T02:55:41.001Z,26.83
2019-04-03T02:58:11.172Z,27.23
2019-04-03T03:00:42.022Z,27.33
2019-04-03T03:03:16.045Z,39.53
2019-04-03T03:05:44.239Z,30.47
2019-04-03T03:08:14.639Z,36.47
2019-04-03T03:10:44.877Z,32.10
2019-04-03T03:13:15.567Z,28.57
2019-04-03T03:15:45.788Z,33.63
2019-04-03T03:18:16.179Z,25.93
2019-04-03T03:20:46.343Z,26.43
2019-04-03T03:23:16.538Z,29.37
2019-04-03T03:25:49.033Z,25.70
2019-04-03T03:28:19.530Z,28.90
2019-04-03T03:30:58.055Z,28.07
2019-04-03T03:33:32.705Z,27.97
2019-04-03T03:35:55.227Z,30.30
2019-04-03T03:38:28.066Z,28.13
2019-04-03T03:40:59.937Z,28.33
2019-04-03T03:43:30.238Z,33.27
2019-04-03T03:46:00.489Z,25.83
2019-04-03T03:48:31.050Z,28.93
2019-04-03T03:51:03.407Z,33.30
2019-04-03T03:53:33.751Z,24.97
2019-04-03T03:56:04.275Z,29.17
2019-04-03T03:58:34.631Z,28.90
2019-04-03T04:01:04.782Z,32.70
2019-04-03T04:03:34.861Z,27.23
2019-04-03T04:06:05.091Z,32.07
2019-04-03T04:08:35.572Z,30.37
2019-04-03T04:11:12.689Z,28.80
2019-04-03T04:13:47.598Z,33.33
2019-04-03T04:16:15.662Z,27.90
2019-04-03T04:18:45.953Z,29.27
2019-04-03T04:21:17.779Z,32.20
2019-04-03T04:23:47.874Z,33.10
2019-04-03T04:26:19.089Z,29.77
2019-04-03T04:28:50.465Z,29.03
2019-04-03T04:31:21.379Z,35.83
2019-04-03T04:33:51.802Z,31.10
2019-04-03T04:36:23.943Z,30.10
2019-04-03T04:38:53.998Z,32.10
2019-04-03T04:41:24.084Z,32.53
2019-04-03T04:43:54.216Z,31.03
2019-04-03T04:46:24.307Z,28.80
2019-04-03T04:48:54.439Z,31.93
2019-04-03T04:51:25.830Z,38.50
2019-04-03T04:53:59.095Z,35.50
2019-04-03T04:56:28.535Z,27.43
2019-04-03T04:58:59.669Z,26.13
2019-04-03T05:01:30.204Z,34.60
2019-04-03T05:04:00.208Z,30.37
2019-04-03T05:06:30.386Z,30.87
2019-04-03T05:09:03.270Z,28.00
2019-04-03T05:11:32.350Z,32.23
2019-04-03T05:14:02.712Z,35.20
2019-04-03T05:16:32.927Z,32.83
2019-04-03T05:19:09.477Z,27.53
2019-04-03T05:21:35.060Z,31.77
2019-04-03T05:24:11.386Z,34.27
2019-04-03T05:26:37.276Z,33.30
2019-04-03T05:29:07.476Z,41.93
2019-04-03T05:31:39.018Z,29.63
2019-04-03T05:34:10.921Z,36.73
2019-04-03T05:36:41.646Z,32.03
2019-04-03T05:39:11.729Z,28.63
2019-04-03T05:41:41.810Z,29.73
2019-04-03T05:44:12.104Z,38.40
2019-04-03T05:46:42.227Z,29.80
2019-04-03T05:49:12.281Z,32.20
2019-04-03T05:51:42.595Z,31.13
2019-04-03T05:54:14.672Z,30.93
2019-04-03T05:56:44.493Z,30.57
2019-04-03T05:59:14.752Z,27.20
2019-04-03T06:01:46.697Z,31.97
2019-04-03T06:04:16.696Z,31.60
2019-04-03T06:06:47.280Z,26.93
2019-04-03T06:09:17.821Z,27.00
2019-04-03T06:11:51.845Z,31.37
2019-04-03T06:14:23.173Z,35.40
2019-04-03T06:16:55.561Z,28.20
2019-04-03T06:19:24.885Z,30.13
2019-04-03T06:21:54.970Z,28.70
2019-04-03T06:24:25.794Z,29.83
2019-04-03T06:26:55.924Z,29.80
2019-04-03T06:29:26.501Z,26.23
2019-04-03T06:31:57.884Z,35.77
2019-04-03T06:34:28.415Z,30.50
2019-04-03T06:36:58.495Z,32.50
2019-04-03T06:39:31.544Z,34.27
2019-04-03T06:42:00.555Z,30.10
2019-04-03T06:44:30.747Z,34.00
2019-04-03T06:47:01.575Z,31.27
2019-04-03T06:49:35.613Z,29.77
2019-04-03T06:52:17.726Z,31.10
2019-04-03T06:54:47.795Z,30.47
2019-04-03T06:57:17.852Z,34.23
2019-04-03T06:59:48.847Z,30.47
2019-04-03T07:02:19.628Z,31.13
2019-04-03T07:04:49.757Z,28.87
2019-04-03T07:07:32.114Z,26.80
2019-04-03T07:09:51.659Z,26.37
2019-04-03T07:12:21.801Z,35.23
2019-04-03T07:14:51.947Z,31.03
2019-04-03T07:17:22.224Z,26.57
2019-04-03T07:19:52.353Z,33.17
2019-04-03T07:22:22.486Z,28.37
2019-04-03T07:24:52.572Z,31.20
2019-04-03T07:27:22.752Z,30.27
2019-04-03T07:29:53.074Z,33.93
2019-04-03T07:32:23.529Z,32.13
2019-04-03T07:34:55.158Z,30.50
2019-04-03T07:37:26.100Z,32.27
2019-04-03T07:39:58.703Z,28.17
2019-04-03T07:42:29.117Z,31.10
2019-04-03T07:44:59.782Z,32.40
2019-04-03T07:47:31.418Z,30.47
2019-04-03T07:50:03.769Z,32.37
2019-04-03T07:52:37.005Z,34.50
2019-04-03T07:55:07.356Z,25.17
2019-04-03T07:57:40.468Z,28.73
2019-04-03T08:00:11.114Z,28.83
2019-04-03T08:02:47.441Z,25.07
2019-04-03T08:05:14.212Z,31.67
2019-04-03T08:07:44.433Z,25.43
2019-04-03T08:10:14.755Z,31.13
2019-04-03T08:12:45.027Z,32.33
2019-04-03T08:15:15.165Z,23.73
2019-04-03T08:17:45.618Z,26.07
2019-04-03T08:20:15.765Z,26.97
2019-04-03T08:22:45.967Z,27.07
2019-04-03T08:25:16.258Z,27.27
2019-04-03T08:27:46.655Z,28.80
2019-04-03T08:30:16.850Z,27.90
2019-04-03T08:32:49.617Z,29.87
2019-04-03T08:35:23.061Z,28.93
2019-04-03T08:37:51.637Z,31.20
2019-04-03T08:40:21.874Z,25.47
2019-04-03T08:42:52.252Z,24.87
2019-04-03T08:45:22.788Z,27.33
2019-04-03T08:47:53.378Z,21.40
2019-04-03T08:50:23.802Z,27.20
2019-04-03T08:52:55.739Z,22.70
2019-04-03T08:55:26.117Z,28.03
2019-04-03T08:57:56.318Z,26.37
2019-04-03T09:00:26.534Z,28.03
2019-04-03T09:02:56.757Z,31.93
2019-04-03T09:05:27.308Z,24.60
2019-04-03T09:07:57.867Z,27.37
2019-04-03T09:10:31.536Z,29.43
2019-04-03T09:13:01.228Z,26.90
2019-04-03T09:15:31.827Z,24.87
2019-04-03T09:18:01.915Z,28.60
2019-04-03T09:20:34.731Z,25.03
2019-04-03T09:23:04.636Z,26.30
2019-04-03T09:25:35.864Z,24.27
2019-04-03T09:28:06.219Z,27.40
2019-04-03T09:30:36.981Z,21.00
2019-04-03T09:33:07.009Z,24.27
2019-04-03T09:35:38.123Z,23.23
2019-04-03T09:38:09.770Z,24.93
2019-04-03T09:40:40.051Z,28.70
2019-04-03T09:43:10.378Z,21.63
2019-04-03T09:45:41.376Z,24.40
2019-04-03T09:48:12.438Z,22.73
2019-04-03T09:50:45.642Z,26.00
2019-04-03T09:53:16.009Z,19.57
2019-04-03T09:55:46.123Z,25.27
2019-04-03T09:58:16.178Z,23.10
2019-04-03T10:00:46.323Z,21.23
2019-04-03T10:03:16.358Z,22.20
2019-04-03T10:05:46.655Z,23.93
2019-04-03T10:08:16.891Z,26.80
2019-04-03T10:10:47.950Z,20.37
2019-04-03T10:13:18.375Z,22.03
2019-04-03T10:15:48.472Z,22.80
2019-04-03T10:18:21.734Z,21.70
2019-04-03T10:20:50.330Z,21.43
2019-04-03T10:23:20.387Z,26.20
2019-04-03T10:25:52.961Z,19.87
2019-04-03T10:28:22.300Z,25.30
2019-04-03T10:30:53.547Z,25.00
2019-04-03T10:33:24.629Z,25.97
2019-04-03T10:35:54.830Z,22.50
2019-04-03T10:38:24.935Z,23.80
2019-04-03T10:40:56.374Z,24.93
2019-04-03T10:43:27.005Z,21.40
2019-04-03T10:45:57.388Z,23.60
2019-04-03T10:48:28.639Z,20.67
2019-04-03T10:50:59.076Z,19.03
2019-04-03T10:53:29.182Z,24.40
2019-04-03T10:56:00.678Z,23.43
2019-04-03T10:58:30.818Z,20.17
2019-04-03T11:01:01.195Z,22.20
2019-04-03T11:03:31.281Z,20.43
2019-04-03T11:06:01.383Z,23.70
2019-04-03T11:08:31.577Z,25.77
2019-04-03T11:11:04.919Z,22.37
2019-04-03T11:13:35.143Z,22.40
2019-04-03T11:16:05.404Z,25.67
2019-04-03T11:18:37.263Z,25.10
2019-04-03T11:21:07.306Z,22.00
2019-04-03T11:23:42.261Z,20.60
2019-04-03T11:26:09.384Z,23.23
2019-04-03T11:28:40.418Z,24.23
2019-04-03T11:31:10.738Z,22.97
2019-04-03T11:33:44.572Z,20.63
2019-04-03T11:36:13.566Z,21.10
2019-04-03T11:38:43.791Z,23.13
2019-04-03T11:41:18.325Z,19.80
2019-04-03T11:43:45.739Z,20.33
2019-04-03T11:46:16.040Z,21.73
2019-04-03T11:48:48.364Z,17.77
2019-04-03T11:51:18.116Z,23.90
2019-04-03T11:53:48.235Z,22.83
2019-04-03T11:56:18.460Z,25.10
2019-04-03T11:58:49.973Z,20.27
2019-04-03T12:01:20.293Z,22.93
2019-04-03T12:03:51.631Z,23.17
2019-04-03T12:06:22.021Z,18.20
2019-04-03T12:08:52.396Z,20.80
2019-04-03T12:11:22.689Z,19.67
2019-04-03T12:13:52.723Z,22.13
2019-04-03T12:16:24.793Z,21.27
2019-04-03T12:18:54.988Z,20.57
2019-04-03T12:21:25.406Z,19.40
2019-04-03T12:23:57.741Z,23.03
2019-04-03T12:26:27.570Z,20.70
2019-04-03T12:28:59.065Z,19.07
2019-04-03T12:31:29.478Z,20.83
2019-04-03T12:34:04.493Z,25.90
2019-04-03T12:36:31.339Z,21.83
2019-04-03T12:39:01.393Z,19.23
2019-04-03T12:41:31.429Z,17.67
2019-04-03T12:44:03.521Z,18.03
2019-04-03T12:46:40.967Z,23.27
2019-04-03T12:49:11.219Z,19.33
2019-04-03T12:51:42.284Z,19.50
2019-04-03T12:54:13.630Z,18.20
2019-04-03T12:56:44.691Z,19.00
2019-04-03T12:59:20.096Z,18.30
2019-04-03T13:01:50.207Z,20.20
2019-04-03T13:04:21.205Z,17.03
2019-04-03T13:06:51.292Z,16.00
2019-04-03T13:09:22.731Z,18.17
2019-04-03T13:11:53.967Z,13.93
2019-04-03T13:14:26.888Z,18.93
2019-04-03T13:16:56.212Z,18.47
2019-04-03T13:19:26.584Z,17.80
2019-04-03T13:21:57.026Z,16.30
2019-04-03T13:24:27.124Z,16.73
2019-04-03T13:26:58.095Z,16.63
2019-04-03T13:29:29.628Z,16.40
2019-04-03T13:32:00.842Z,21.63
2019-04-03T13:34:32.378Z,25.00
2019-04-03T13:37:02.605Z,16.03
2019-04-03T13:39:33.590Z,20.97
2019-04-03T13:42:04.204Z,15.73
2019-04-03T13:44:34.277Z,21.53
2019-04-03T13:47:07.479Z,15.83
2019-04-03T13:49:36.717Z,15.03
2019-04-03T13:52:09.019Z,16.23
2019-04-03T13:54:39.315Z,19.77
2019-04-03T13:57:09.439Z,17.53
2019-04-03T13:59:39.520Z,17.30
2019-04-03T14:02:12.761Z,17.43
2019-04-03T14:04:41.359Z,16.90
2019-04-03T14:07:11.574Z,18.23
2019-04-03T14:09:42.578Z,16.53
2019-04-03T14:12:12.763Z,20.07
2019-04-03T14:14:42.872Z,14.87
2019-04-03T14:17:14.285Z,17.87
2019-04-03T14:19:48.433Z,17.03
2019-04-03T14:22:16.675Z,16.43
2019-04-03T14:24:51.468Z,16.63
2019-04-03T14:27:24.239Z,14.30
2019-04-03T14:29:51.098Z,17.20
2019-04-03T14:32:22.135Z,17.60
2019-04-03T14:35:04.164Z,15.33
2019-04-03T14:37:26.243Z,16.13
2019-04-03T14:39:56.713Z,14.27
2019-04-03T14:42:27.350Z,13.37
2019-04-03T14:44:57.804Z,13.93
2019-04-03T14:47:28.453Z,17.33
2019-04-03T14:49:58.815Z,20.43
2019-04-03T14:52:28.887Z,13.27
2019-04-03T14:55:05.293Z,17.53
2019-04-03T14:57:31.573Z,16.47
2019-04-03T15:00:05.099Z,13.63
2019-04-03T15:02:33.578Z,15.67
2019-04-03T15:05:06.662Z,18.13
2019-04-03T15:07:35.844Z,16.07
2019-04-03T15:10:06.697Z,13.57
2019-04-03T15:12:39.832Z,16.20
2019-04-03T15:15:09.719Z,17.83
2019-04-03T15:17:41.467Z,15.13
2019-04-03T15:20:15.276Z,14.60
2019-04-03T15:22:46.363Z,14.63
2019-04-03T15:25:19.567Z,15.13
2019-04-03T15:27:48.570Z,22.00
2019-04-03T15:30:20.603Z,20.50
2019-04-03T15:32:52.238Z,17.17
2019-04-03T15:35:23.109Z,18.57
2019-04-03T15:37:53.670Z,20.23
2019-04-03T15:40:25.897Z,14.50
2019-04-03T15:42:55.810Z,17.10
2019-04-03T15:45:26.213Z,17.00
2019-04-03T15:47:57.927Z,21.07
2019-04-03T15:50:31.954Z,19.03
2019-04-03T15:53:02.397Z,18.70
2019-04-03T15:55:32.968Z,18.90
2019-04-03T15:58:03.146Z,13.77
2019-04-03T16:00:34.809Z,15.10
2019-04-03T16:03:05.184Z,20.17
2019-04-03T16:05:36.508Z,18.40
2019-04-03T16:08:07.772Z,15.70
2019-04-03T16:10:38.381Z,14.87
2019-04-03T16:13:08.431Z,19.00
2019-04-03T16:15:38.925Z,14.77
2019-04-03T16:18:09.119Z,18.10
2019-04-03T16:20:39.213Z,17.53
2019-04-03T16:23:09.404Z,15.13
2019-04-03T16:25:39.591Z,18.63
2019-04-03T16:28:13.007Z,15.40
2019-04-03T16:30:42.952Z,17.07
2019-04-03T16:33:21.384Z,16.03
2019-04-03T16:35:46.141Z,25.00
2019-04-03T16:38:17.687Z,15.03
2019-04-03T16:40:47.816Z,14.53
2019-04-03T16:43:19.884Z,18.60
2019-04-03T16:45:50.135Z,13.57
2019-04-03T16:48:20.217Z,16.63
2019-04-03T16:50:50.351Z,20.03
2019-04-03T16:53:20.844Z,17.67
2019-04-03T16:55:51.029Z,16.90
2019-04-03T16:58:21.101Z,18.10
2019-04-03T17:00:51.422Z,17.40
2019-04-03T17:03:21.591Z,23.43
2019-04-03T17:05:51.659Z,24.93
2019-04-03T17:08:21.734Z,25.03
2019-04-03T17:10:51.821Z,24.33
2019-04-03T17:13:22.304Z,24.53
2019-04-03T17:15:52.651Z,22.60
2019-04-03T17:18:22.751Z,18.50
2019-04-03T17:20:53.191Z,19.00
2019-04-03T17:23:24.703Z,20.63
2019-04-03T17:25:55.943Z,25.77
2019-04-03T17:28:26.635Z,23.13
2019-04-03T17:30:57.997Z,24.77
2019-04-03T17:33:28.161Z,29.13
2019-04-03T17:35:58.443Z,26.60
2019-04-03T17:38:31.493Z,20.53
2019-04-03T17:41:01.145Z,21.77
2019-04-03T17:43:31.398Z,26.10
2019-04-03T17:46:02.054Z,28.03
2019-04-03T17:48:34.977Z,22.30
2019-04-03T17:51:05.177Z,24.43
2019-04-03T17:53:43.510Z,27.50
2019-04-03T17:56:23.064Z,22.27
2019-04-03T17:58:53.307Z,25.10
2019-04-03T18:01:23.495Z,16.43
2019-04-03T18:03:53.645Z,22.70
2019-04-03T18:06:23.723Z,23.47
2019-04-03T18:08:53.869Z,25.23
2019-04-03T18:11:25.328Z,21.57
2019-04-03T18:13:55.643Z,19.83
2019-04-03T18:16:25.784Z,24.77
2019-04-03T18:18:56.319Z,23.67
2019-04-03T18:21:26.462Z,25.47
2019-04-03T18:23:56.950Z,27.53
2019-04-03T18:26:30.618Z,28.70
2019-04-03T18:29:01.363Z,25.67
2019-04-03T18:31:31.505Z,23.33
2019-04-03T18:34:01.659Z,26.23
2019-04-03T18:36:31.832Z,23.93
2019-04-03T18:39:01.972Z,22.47
2019-04-03T18:41:32.074Z,25.47
2019-04-03T18:44:02.559Z,21.90
2019-04-03T18:46:34.494Z,21.73
2019-04-03T18:49:04.597Z,24.47
2019-04-03T18:51:37.215Z,29.77
2019-04-03T18:54:09.759Z,23.27
2019-04-03T18:56:40.132Z,22.97
2019-04-03T18:59:10.552Z,26.13
2019-04-03T19:01:40.807Z,24.37
2019-04-03T19:04:11.657Z,24.63
2019-04-03T19:06:44.506Z,24.87
2019-04-03T19:09:14.646Z,25.00
2019-04-03T19:11:45.210Z,22.17
2019-04-03T19:14:26.525Z,30.73
2019-04-03T19:16:51.613Z,21.97
2019-04-03T19:19:19.072Z,22.70
2019-04-03T19:21:49.693Z,22.13
2019-04-03T19:24:19.886Z,25.37
2019-04-03T19:26:50.066Z,21.43
2019-04-03T19:29:20.232Z,21.50
2019-04-03T19:31:51.993Z,20.77
2019-04-03T19:34:22.392Z,18.93
2019-04-03T19:36:53.184Z,21.93
2019-04-03T19:39:24.177Z,18.50
2019-04-03T19:41:57.051Z,23.57
2019-04-03T19:44:28.144Z,22.33
2019-04-03T19:46:59.157Z,19.83
2019-04-03T19:49:29.572Z,16.87
2019-04-03T19:51:59.949Z,20.30
2019-04-03T19:54:30.961Z,17.50
2019-04-03T19:57:01.246Z,17.10
2019-04-03T19:59:34.583Z,23.60
2019-04-03T20:02:04.471Z,27.10
2019-04-03T20:04:34.944Z,28.93
2019-04-03T20:07:05.097Z,20.00
2019-04-03T20:09:35.121Z,22.73
2019-04-03T20:12:07.044Z,19.40
2019-04-03T20:14:37.031Z,18.57
2019-04-03T20:17:07.171Z,18.90
2019-04-03T20:19:37.240Z,19.27
2019-04-03T20:22:07.592Z,22.97
2019-04-03T20:24:38.781Z,23.20
2019-04-03T20:27:08.898Z,21.13
2019-04-03T20:29:38.944Z,22.13
2019-04-03T20:32:09.496Z,18.90
2019-04-03T20:34:39.846Z,24.70
2019-04-03T20:37:09.929Z,26.07
2019-04-03T20:39:40.973Z,23.17
2019-04-03T20:42:11.231Z,21.47
2019-04-03T20:44:41.391Z,20.67
2019-04-03T20:47:11.486Z,21.93
2019-04-03T20:49:43.681Z,18.57
2019-04-03T20:52:13.751Z,16.73
2019-04-03T20:54:44.523Z,22.37
2019-04-03T20:57:14.907Z,20.10
2019-04-03T21:00:02.958Z,20.87
2019-04-03T21:02:30.265Z,26.63
2019-04-03T21:05:00.697Z,19.00
2019-04-03T21:07:30.838Z,22.50
2019-04-03T21:10:09.817Z,20.20
2019-04-03T21:12:44.770Z,27.57
2019-04-03T21:15:22.679Z,24.50
2019-04-03T21:18:00.723Z,19.53
2019-04-03T21:20:39.085Z,24.07
2019-04-03T21:23:18.795Z,22.50
2019-04-03T21:26:00.859Z,23.47
2019-04-03T21:28:31.195Z,21.50
2019-04-03T21:31:01.293Z,19.23
2019-04-03T21:33:31.460Z,23.07
2019-04-03T21:36:01.514Z,19.90
2019-04-03T21:38:31.632Z,24.30
2019-04-03T21:41:02.396Z,21.43
2019-04-03T21:43:32.449Z,18.57
2019-04-03T21:46:02.530Z,22.63
2019-04-03T21:48:32.574Z,21.93
2019-04-03T21:51:02.597Z,23.47
2019-04-03T21:53:32.674Z,26.03
2019-04-03T21:56:03.159Z,22.93
2019-04-03T21:58:33.274Z,22.37
2019-04-03T22:01:23.963Z,23.77
2019-04-03T22:03:54.378Z,26.90
2019-04-03T22:06:26.625Z,22.30
2019-04-03T22:08:59.667Z,22.37
2019-04-03T22:11:47.771Z,23.83
2019-04-03T22:14:18.279Z,19.23
2019-04-03T22:16:50.580Z,20.50
2019-04-03T22:19:20.467Z,21.93
2019-04-03T22:21:50.616Z,24.80
2019-04-03T22:24:20.745Z,23.13
2019-04-03T22:26:50.814Z,26.80
2019-04-03T22:29:20.913Z,27.77
2019-04-03T22:31:53.608Z,22.93
2019-04-03T22:34:22.840Z,25.87
2019-04-03T22:36:52.852Z,20.63
2019-04-03T22:39:22.904Z,24.70
2019-04-03T22:41:52.994Z,20.90
2019-04-03T22:44:24.090Z,23.33
2019-04-03T22:46:54.713Z,25.70
2019-04-03T22:49:24.789Z,22.50
2019-04-03T22:51:54.855Z,28.83
2019-04-03T22:54:24.922Z,22.50
2019-04-03T22:56:54.980Z,24.97
2019-04-03T22:59:25.057Z,26.83
2019-04-03T23:01:55.154Z,20.10
2019-04-03T23:04:25.191Z,22.67
2019-04-03T23:06:55.321Z,24.73
2019-04-03T23:09:25.563Z,26.77
2019-04-03T23:11:56.667Z,24.57
2019-04-03T23:14:27.124Z,21.40
2019-04-03T23:16:57.296Z,20.60
2019-04-03T23:19:27.487Z,30.27
2019-04-03T23:21:57.651Z,20.60
2019-04-03T23:24:28.995Z,30.37
2019-04-03T23:27:02.370Z,24.53
2019-04-03T23:29:31.485Z,29.40
2019-04-03T23:32:02.092Z,26.80
2019-04-03T23:34:32.220Z,28.90
2019-04-03T23:37:02.340Z,31.37
2019-04-03T23:39:32.780Z,21.13
2019-04-03T23:42:02.927Z,24.37
2019-04-03T23:44:33.109Z,22.17
2019-04-03T23:47:03.876Z,25.67
2019-04-03T23:49:36.502Z,21.63
2019-04-03T23:52:06.671Z,22.13
2019-04-03T23:54:36.791Z,31.93
2019-04-03T23:57:09.517Z,19.27
2019-04-03T23:59:38.763Z,24.67
